createdAt,value
2018-06-15T00:00:38.257Z,16.90
2018-06-15T00:01:38.281Z,20.50
2018-06-15T00:02:38.261Z,16.50
2018-06-15T00:03:38.267Z,18.20
2018-06-15T00:04:38.267Z,19.70
2018-06-15T00:05:38.267Z,17.00
2018-06-15T00:06:38.270Z,16.10
2018-06-15T00:07:38.272Z,14.40
2018-06-15T00:08:38.280Z,17.40
2018-06-15T00:09:38.276Z,17.10
2018-06-15T00:10:38.279Z,14.80
2018-06-15T00:11:38.282Z,14.70
2018-06-15T00:12:38.285Z,17.50
2018-06-15T00:13:38.286Z,16.70
2018-06-15T00:14:38.288Z,19.40
2018-06-15T00:15:38.292Z,14.50
2018-06-15T00:16:38.294Z,23.90
2018-06-15T00:17:38.297Z,12.10
2018-06-15T00:18:38.298Z,17.70
2018-06-15T00:19:38.301Z,13.60
2018-06-15T00:20:38.304Z,16.00
2018-06-15T00:21:38.307Z,18.30
2018-06-15T00:22:38.308Z,13.80
2018-06-15T00:23:38.311Z,20.00
2018-06-15T00:24:38.313Z,11.80
2018-06-15T00:25:38.315Z,19.10
2018-06-15T00:26:38.319Z,15.00
2018-06-15T00:27:38.355Z,17.60
2018-06-15T00:28:38.323Z,20.50
2018-06-15T00:29:38.325Z,14.90
2018-06-15T00:30:38.329Z,16.30
2018-06-15T00:31:38.330Z,19.20
2018-06-15T00:32:38.333Z,13.50
2018-06-15T00:33:38.334Z,20.60
2018-06-15T00:34:38.338Z,18.70
2018-06-15T00:35:38.340Z,13.50
2018-06-15T00:36:38.343Z,15.10
2018-06-15T00:37:38.344Z,16.70
2018-06-15T00:38:38.347Z,18.70
2018-06-15T00:39:38.350Z,23.90
2018-06-15T00:40:38.352Z,21.00
2018-06-15T00:41:38.355Z,17.80
2018-06-15T00:42:38.356Z,12.50
2018-06-15T00:43:38.360Z,17.50
2018-06-15T00:44:38.361Z,14.40
2018-06-15T00:45:38.370Z,18.10
2018-06-15T00:46:38.366Z,15.10
2018-06-15T00:47:38.371Z,23.60
2018-06-15T00:48:38.371Z,14.90
2018-06-15T00:49:38.373Z,17.60
2018-06-15T00:50:38.375Z,18.70
2018-06-15T00:51:38.378Z,30.40
2018-06-15T00:52:38.381Z,20.10
2018-06-15T00:53:38.383Z,15.50
2018-06-15T00:54:38.385Z,18.90
2018-06-15T00:55:38.389Z,20.40
2018-06-15T00:56:38.391Z,15.10
2018-06-15T00:57:38.395Z,15.20
2018-06-15T00:58:38.400Z,20.90
2018-06-15T00:59:38.398Z,17.10
2018-06-15T01:00:38.401Z,14.60
2018-06-15T01:01:38.401Z,22.90
2018-06-15T01:02:38.406Z,24.20
2018-06-15T01:03:38.412Z,16.80
2018-06-15T01:04:38.412Z,18.40
2018-06-15T01:05:38.411Z,21.10
2018-06-15T01:06:38.415Z,20.00
2018-06-15T01:07:38.417Z,18.60
2018-06-15T01:08:38.420Z,18.00
2018-06-15T01:09:38.421Z,19.50
2018-06-15T01:10:38.425Z,23.20
2018-06-15T01:11:38.426Z,20.50
2018-06-15T01:12:38.429Z,13.10
2018-06-15T01:13:38.431Z,16.00
2018-06-15T01:14:38.432Z,26.80
2018-06-15T01:15:38.436Z,30.10
2018-06-15T01:16:38.438Z,16.60
2018-06-15T01:17:38.441Z,21.30
2018-06-15T01:18:38.442Z,16.50
2018-06-15T01:19:38.447Z,14.20
2018-06-15T01:20:38.453Z,13.50
2018-06-15T01:21:38.449Z,18.40
2018-06-15T01:22:38.450Z,16.00
2018-06-15T01:23:38.453Z,17.70
2018-06-15T01:24:38.458Z,23.50
2018-06-15T01:25:38.458Z,22.00
2018-06-15T01:26:38.459Z,17.70
2018-06-15T01:27:38.462Z,19.20
2018-06-15T01:28:38.464Z,17.90
2018-06-15T01:29:38.466Z,18.20
2018-06-15T01:30:38.467Z,17.30
2018-06-15T01:31:38.470Z,14.00
2018-06-15T01:32:38.472Z,13.70
2018-06-15T01:33:38.473Z,16.80
2018-06-15T01:34:38.476Z,15.60
2018-06-15T01:35:38.480Z,18.00
2018-06-15T01:36:38.480Z,11.70
2018-06-15T01:37:38.480Z,18.60
2018-06-15T01:38:38.489Z,19.80
2018-06-15T01:39:38.485Z,17.20
2018-06-15T01:40:38.490Z,18.00
2018-06-15T01:41:38.488Z,16.30
2018-06-15T01:42:38.490Z,13.50
2018-06-15T01:43:38.492Z,17.90
2018-06-15T01:44:38.494Z,18.40
2018-06-15T01:45:38.495Z,19.60
2018-06-15T01:46:38.498Z,15.00
2018-06-15T01:47:38.500Z,19.40
2018-06-15T01:48:38.509Z,12.80
2018-06-15T01:49:38.503Z,16.20
2018-06-15T01:50:38.505Z,26.00
2018-06-15T01:51:38.506Z,21.00
2018-06-15T01:52:38.508Z,13.60
2018-06-15T01:53:38.509Z,19.00
2018-06-15T01:54:38.512Z,15.50
2018-06-15T01:55:38.517Z,17.90
2018-06-15T01:56:38.516Z,16.60
2018-06-15T01:57:38.517Z,16.90
2018-06-15T01:58:38.520Z,25.80
2018-06-15T01:59:38.521Z,18.90
2018-06-15T02:00:38.522Z,19.80
2018-06-15T02:01:38.524Z,20.20
2018-06-15T02:02:38.525Z,22.80
2018-06-15T02:03:38.528Z,17.90
2018-06-15T02:04:38.529Z,22.20
2018-06-15T02:05:38.534Z,24.20
2018-06-15T02:06:38.533Z,23.40
2018-06-15T02:07:38.535Z,25.90
2018-06-15T02:08:38.537Z,20.30
2018-06-15T02:09:38.539Z,24.30
2018-06-15T02:10:38.539Z,24.20
2018-06-15T02:11:38.544Z,18.70
2018-06-15T02:12:38.544Z,18.80
2018-06-15T02:13:38.546Z,18.60
2018-06-15T02:14:38.547Z,24.00
2018-06-15T02:15:38.549Z,23.10
2018-06-15T02:16:38.552Z,17.40
2018-06-15T02:17:38.552Z,16.30
2018-06-15T02:18:38.554Z,19.40
2018-06-15T02:19:38.556Z,22.40
2018-06-15T02:20:38.558Z,16.20
2018-06-15T02:21:38.559Z,18.20
2018-06-15T02:22:38.561Z,24.00
2018-06-15T02:23:38.563Z,18.40
2018-06-15T02:24:38.565Z,15.80
2018-06-15T02:25:38.566Z,16.60
2018-06-15T02:26:38.568Z,22.50
2018-06-15T02:27:38.570Z,21.80
2018-06-15T02:28:38.572Z,19.60
2018-06-15T02:29:38.573Z,18.70
2018-06-15T02:30:38.575Z,17.80
2018-06-15T02:31:38.577Z,16.70
2018-06-15T02:32:38.579Z,26.20
2018-06-15T02:33:38.581Z,22.10
2018-06-15T02:34:38.582Z,21.90
2018-06-15T02:35:38.584Z,23.30
2018-06-15T02:36:38.587Z,18.50
2018-06-15T02:37:38.587Z,19.20
2018-06-15T02:38:38.589Z,18.60
2018-06-15T02:39:38.591Z,21.70
2018-06-15T02:40:38.593Z,18.40
2018-06-15T02:41:38.594Z,21.70
2018-06-15T02:42:38.596Z,18.20
2018-06-15T02:43:38.598Z,15.40
2018-06-15T02:44:38.599Z,19.00
2018-06-15T02:45:38.602Z,19.20
2018-06-15T02:46:38.601Z,25.10
2018-06-15T02:47:38.605Z,19.10
2018-06-15T02:48:38.606Z,26.50
2018-06-15T02:49:38.607Z,23.50
2018-06-15T02:50:38.609Z,18.80
2018-06-15T02:51:38.609Z,21.50
2018-06-15T02:52:38.611Z,22.70
2018-06-15T02:53:38.613Z,22.10
2018-06-15T02:54:38.614Z,21.10
2018-06-15T02:55:38.616Z,18.80
2018-06-15T02:56:38.617Z,18.30
2018-06-15T02:57:38.622Z,16.90
2018-06-15T02:58:38.622Z,18.80
2018-06-15T02:59:38.622Z,27.00
2018-06-15T03:00:38.623Z,24.80
2018-06-15T03:01:38.625Z,16.20
2018-06-15T03:02:38.625Z,19.60
2018-06-15T03:03:38.627Z,21.50
2018-06-15T03:04:38.629Z,25.10
2018-06-15T03:05:38.629Z,24.80
2018-06-15T03:06:38.630Z,28.90
2018-06-15T03:07:38.633Z,22.10
2018-06-15T03:08:38.635Z,32.70
2018-06-15T03:09:38.634Z,23.50
2018-06-15T03:10:38.637Z,27.20
2018-06-15T03:11:38.638Z,37.20
2018-06-15T03:12:38.640Z,34.70
2018-06-15T03:13:38.641Z,31.30
2018-06-15T03:14:38.642Z,24.70
2018-06-15T03:15:38.643Z,29.80
2018-06-15T03:16:38.646Z,30.40
2018-06-15T03:17:38.645Z,27.40
2018-06-15T03:18:38.649Z,28.80
2018-06-15T03:19:38.650Z,28.20
2018-06-15T03:20:38.651Z,29.50
2018-06-15T03:21:38.652Z,31.50
2018-06-15T03:22:38.654Z,30.50
2018-06-15T03:23:38.656Z,33.10
2018-06-15T03:24:38.658Z,30.50
2018-06-15T03:25:38.658Z,27.30
2018-06-15T03:26:38.660Z,28.70
2018-06-15T03:27:38.662Z,31.80
2018-06-15T03:28:38.664Z,28.10
2018-06-15T03:29:38.665Z,32.30
2018-06-15T03:30:38.669Z,31.60
2018-06-15T03:31:38.673Z,32.10
2018-06-15T03:32:38.671Z,32.80
2018-06-15T03:33:38.671Z,26.60
2018-06-15T03:34:38.672Z,29.00
2018-06-15T03:35:38.675Z,25.30
2018-06-15T03:36:38.677Z,22.80
2018-06-15T03:37:38.701Z,29.90
2018-06-15T03:38:38.679Z,29.00
2018-06-15T03:39:38.682Z,33.60
2018-06-15T03:40:38.683Z,25.80
2018-06-15T03:41:38.684Z,28.60
2018-06-15T03:42:38.685Z,35.00
2018-06-15T03:43:38.688Z,33.20
2018-06-15T03:44:38.689Z,31.80
2018-06-15T03:45:38.691Z,31.20
2018-06-15T03:46:38.692Z,31.20
2018-06-15T03:47:38.695Z,32.40
2018-06-15T03:48:38.696Z,29.20
2018-06-15T03:49:38.698Z,35.60
2018-06-15T03:50:38.699Z,29.80
2018-06-15T03:51:38.704Z,35.00
2018-06-15T03:52:38.703Z,31.80
2018-06-15T03:53:38.708Z,30.60
2018-06-15T03:54:38.706Z,30.80
2018-06-15T03:55:38.708Z,27.50
2018-06-15T03:56:38.714Z,28.00
2018-06-15T03:57:38.711Z,34.90
2018-06-15T03:58:38.713Z,22.40
2018-06-15T03:59:38.716Z,30.20
2018-06-15T04:00:38.717Z,25.30
2018-06-15T04:01:38.720Z,30.10
2018-06-15T04:02:38.721Z,28.10
2018-06-15T04:03:38.722Z,35.90
2018-06-15T04:04:38.724Z,31.50
2018-06-15T04:05:38.727Z,33.50
2018-06-15T04:06:38.727Z,24.30
2018-06-15T04:07:38.785Z,27.90
2018-06-15T04:08:38.732Z,37.40
2018-06-15T04:09:38.734Z,35.00
2018-06-15T04:10:38.734Z,25.90
2018-06-15T04:11:38.737Z,24.30
2018-06-15T04:12:38.739Z,23.60
2018-06-15T04:13:38.741Z,26.10
2018-06-15T04:14:38.740Z,20.70
2018-06-15T04:15:38.750Z,20.20
2018-06-15T04:16:38.745Z,21.50
2018-06-15T04:17:38.749Z,21.60
2018-06-15T04:18:38.749Z,24.70
2018-06-15T04:19:38.752Z,23.50
2018-06-15T04:20:38.753Z,20.60
2018-06-15T04:21:38.757Z,25.90
2018-06-15T04:22:38.757Z,24.90
2018-06-15T04:23:38.758Z,25.50
2018-06-15T04:24:38.761Z,29.40
2018-06-15T04:25:38.762Z,27.80
2018-06-15T04:26:38.762Z,33.70
2018-06-15T04:27:38.766Z,28.10
2018-06-15T04:28:38.768Z,23.10
2018-06-15T04:29:38.771Z,24.60
2018-06-15T04:30:38.771Z,26.20
2018-06-15T04:31:38.773Z,27.20
2018-06-15T04:32:38.776Z,26.10
2018-06-15T04:33:38.777Z,22.30
2018-06-15T04:34:38.778Z,31.00
2018-06-15T04:35:38.781Z,27.50
2018-06-15T04:36:38.782Z,25.50
2018-06-15T04:37:38.785Z,28.00
2018-06-15T04:38:38.787Z,27.90
2018-06-15T04:39:38.789Z,31.40
2018-06-15T04:40:38.792Z,28.90
2018-06-15T04:41:38.797Z,28.10
2018-06-15T04:42:38.796Z,34.80
2018-06-15T04:43:38.798Z,32.80
2018-06-15T04:44:38.800Z,32.40
2018-06-15T04:45:38.802Z,27.90
2018-06-15T04:46:38.805Z,28.00
2018-06-15T04:47:38.806Z,33.00
2018-06-15T04:48:38.809Z,31.10
2018-06-15T04:49:38.811Z,31.70
2018-06-15T04:50:38.815Z,26.00
2018-06-15T04:51:38.816Z,26.10
2018-06-15T04:52:38.818Z,27.80
2018-06-15T04:53:38.820Z,27.40
2018-06-15T04:54:38.824Z,26.50
2018-06-15T04:55:38.825Z,26.60
2018-06-15T04:56:38.828Z,25.40
2018-06-15T04:57:38.831Z,27.80
2018-06-15T04:58:38.833Z,30.90
2018-06-15T04:59:38.836Z,22.50
2018-06-15T05:00:38.838Z,27.50
2018-06-15T05:01:38.841Z,23.80
2018-06-15T05:02:38.845Z,24.30
2018-06-15T05:03:38.846Z,25.60
2018-06-15T05:04:38.849Z,23.60
2018-06-15T05:05:38.851Z,21.30
2018-06-15T05:06:38.854Z,25.50
2018-06-15T05:07:38.862Z,23.20
2018-06-15T05:08:38.860Z,26.10
2018-06-15T05:09:38.862Z,23.20
2018-06-15T05:10:38.866Z,29.50
2018-06-15T05:11:38.869Z,24.60
2018-06-15T05:12:38.872Z,26.50
2018-06-15T05:13:38.873Z,30.00
2018-06-15T05:14:38.880Z,22.20
2018-06-15T05:15:38.883Z,23.70
2018-06-15T05:16:38.884Z,22.80
2018-06-15T05:17:38.887Z,21.60
2018-06-15T05:18:38.891Z,23.10
2018-06-15T05:19:38.893Z,24.30
2018-06-15T05:20:38.897Z,27.70
2018-06-15T05:21:38.902Z,22.00
2018-06-15T05:22:38.903Z,31.70
2018-06-15T05:23:38.906Z,21.40
2018-06-15T05:24:38.910Z,26.40
2018-06-15T05:25:38.914Z,24.20
2018-06-15T05:26:38.918Z,25.10
2018-06-15T05:27:38.920Z,28.00
2018-06-15T05:28:38.924Z,24.00
2018-06-15T05:29:38.927Z,24.30
2018-06-15T05:30:38.930Z,23.40
2018-06-15T05:31:38.935Z,23.00
2018-06-15T05:32:38.937Z,25.70
2018-06-15T05:33:38.940Z,26.20
2018-06-15T05:34:38.944Z,22.10
2018-06-15T05:35:38.948Z,27.00
2018-06-15T05:36:38.951Z,35.50
2018-06-15T05:37:38.958Z,29.80
2018-06-15T05:38:38.957Z,25.10
2018-06-15T05:39:38.962Z,24.70
2018-06-15T05:40:38.965Z,27.30
2018-06-15T05:41:38.969Z,27.20
2018-06-15T05:42:38.989Z,31.40
2018-06-15T05:43:38.974Z,29.20
2018-06-15T05:44:38.978Z,25.70
2018-06-15T05:45:38.981Z,25.10
2018-06-15T05:46:38.983Z,26.90
2018-06-15T05:47:38.987Z,24.10
2018-06-15T05:48:38.991Z,29.80
2018-06-15T05:49:38.993Z,24.50
2018-06-15T05:50:38.999Z,36.40
2018-06-15T05:51:38.999Z,26.40
2018-06-15T05:52:39.002Z,31.80
2018-06-15T05:53:39.007Z,28.10
2018-06-15T05:54:39.012Z,28.50
2018-06-15T05:55:39.043Z,26.70
2018-06-15T05:56:39.015Z,27.60
2018-06-15T05:57:39.017Z,25.50
2018-06-15T05:58:39.023Z,33.30
2018-06-15T05:59:39.024Z,32.70
2018-06-15T06:00:39.027Z,30.30
2018-06-15T06:01:39.029Z,30.50
2018-06-15T06:02:39.034Z,34.10
2018-06-15T06:03:39.036Z,29.80
2018-06-15T06:04:39.039Z,35.70
2018-06-15T06:05:39.042Z,29.60
2018-06-15T06:06:39.045Z,41.10
2018-06-15T06:07:39.048Z,37.30
2018-06-15T06:08:39.052Z,34.00
2018-06-15T06:09:39.054Z,27.70
2018-06-15T06:10:39.058Z,28.80
2018-06-15T06:11:39.062Z,30.00
2018-06-15T06:12:39.066Z,29.90
2018-06-15T06:13:39.067Z,37.10
2018-06-15T06:14:39.074Z,36.00
2018-06-15T06:15:39.075Z,26.50
2018-06-15T06:16:39.078Z,29.90
2018-06-15T06:17:39.080Z,30.80
2018-06-15T06:18:39.084Z,32.70
2018-06-15T06:19:39.088Z,28.50
2018-06-15T06:20:39.091Z,33.80
2018-06-15T06:21:39.094Z,36.20
2018-06-15T06:22:39.098Z,31.30
2018-06-15T06:23:39.101Z,29.50
2018-06-15T06:24:39.108Z,30.00
2018-06-15T06:25:39.107Z,33.50
2018-06-15T06:26:39.111Z,37.20
2018-06-15T06:27:39.117Z,36.70
2018-06-15T06:28:39.119Z,31.40
2018-06-15T06:29:39.122Z,28.10
2018-06-15T06:30:39.126Z,33.10
2018-06-15T06:31:39.130Z,28.80
2018-06-15T06:32:39.204Z,33.20
2018-06-15T06:33:39.136Z,38.70
2018-06-15T06:34:39.141Z,34.90
2018-06-15T06:35:39.146Z,29.00
2018-06-15T06:36:39.152Z,29.90
2018-06-15T06:37:39.152Z,30.20
2018-06-15T06:38:39.155Z,29.70
2018-06-15T06:39:39.161Z,25.10
2018-06-15T06:40:39.166Z,29.70
2018-06-15T06:41:39.169Z,24.20
2018-06-15T06:42:39.175Z,26.80
2018-06-15T06:43:39.185Z,24.60
2018-06-15T06:44:39.183Z,26.40
2018-06-15T06:45:39.187Z,24.30
2018-06-15T06:46:39.194Z,22.70
2018-06-15T06:47:39.196Z,25.40
2018-06-15T06:48:39.201Z,24.70
2018-06-15T06:49:39.205Z,22.70
2018-06-15T06:50:39.267Z,21.20
2018-06-15T06:51:39.219Z,23.80
2018-06-15T06:52:39.221Z,29.00
2018-06-15T06:53:39.224Z,23.70
2018-06-15T06:54:39.232Z,27.20
2018-06-15T06:55:39.236Z,24.00
2018-06-15T06:56:39.240Z,29.10
2018-06-15T06:57:39.245Z,27.40
2018-06-15T06:58:39.251Z,25.20
2018-06-15T06:59:39.255Z,25.40
2018-06-15T07:00:39.261Z,22.10
2018-06-15T07:01:39.265Z,24.90
2018-06-15T07:02:39.272Z,20.70
2018-06-15T07:03:39.277Z,20.70
2018-06-15T07:04:39.282Z,22.90
2018-06-15T07:05:39.288Z,20.00
2018-06-15T07:06:39.293Z,16.10
2018-06-15T07:07:39.298Z,19.10
2018-06-15T07:08:39.305Z,24.90
2018-06-15T07:09:39.309Z,24.70
2018-06-15T07:10:39.315Z,22.90
2018-06-15T07:11:39.321Z,23.80
2018-06-15T07:12:39.328Z,21.40
2018-06-15T07:13:39.332Z,28.00
2018-06-15T07:14:39.337Z,22.10
2018-06-15T07:15:39.344Z,20.00
2018-06-15T07:16:39.349Z,23.10
2018-06-15T07:17:39.354Z,15.00
2018-06-15T07:18:39.361Z,21.80
2018-06-15T07:19:39.367Z,21.20
2018-06-15T07:20:39.372Z,19.60
2018-06-15T07:21:39.378Z,20.40
2018-06-15T07:22:39.384Z,25.50
2018-06-15T07:23:39.442Z,20.00
2018-06-15T07:24:39.395Z,21.70
2018-06-15T07:25:39.400Z,20.10
2018-06-15T07:26:39.407Z,19.60
2018-06-15T07:27:39.418Z,20.30
2018-06-15T07:28:39.422Z,16.90
2018-06-15T07:29:39.426Z,19.40
2018-06-15T07:30:39.433Z,18.00
2018-06-15T07:31:39.442Z,19.50
2018-06-15T07:32:39.449Z,15.10
2018-06-15T07:33:39.456Z,17.00
2018-06-15T07:34:39.464Z,19.00
2018-06-15T07:35:39.472Z,18.80
2018-06-15T07:36:39.480Z,17.30
2018-06-15T07:37:39.488Z,19.60
2018-06-15T07:38:39.501Z,18.80
2018-06-15T07:39:39.506Z,18.60
2018-06-15T07:40:39.515Z,15.10
2018-06-15T07:41:39.523Z,13.40
2018-06-15T07:42:39.532Z,12.30
2018-06-15T07:43:39.542Z,16.00
2018-06-15T07:44:39.554Z,18.60
2018-06-15T07:45:39.560Z,15.00
2018-06-15T07:46:39.571Z,13.50
2018-06-15T07:47:39.577Z,17.00
2018-06-15T07:48:39.588Z,13.70
2018-06-15T07:49:39.596Z,15.60
2018-06-15T07:50:39.605Z,13.70
2018-06-15T07:51:39.615Z,12.00
2018-06-15T07:52:39.627Z,14.00
2018-06-15T07:53:39.635Z,11.30
2018-06-15T07:54:39.645Z,11.90
2018-06-15T07:55:39.656Z,11.50
2018-06-15T07:56:39.667Z,12.50
2018-06-15T07:57:39.676Z,12.00
2018-06-15T07:58:39.688Z,14.80
2018-06-15T07:59:39.703Z,10.50
2018-06-15T08:00:39.711Z,13.80
2018-06-15T08:01:39.720Z,12.20
2018-06-15T08:02:39.735Z,10.60
2018-06-15T08:03:39.746Z,9.20
2018-06-15T08:04:39.756Z,12.90
2018-06-15T08:05:39.767Z,15.30
2018-06-15T08:06:39.778Z,10.60
2018-06-15T08:07:39.793Z,11.20
2018-06-15T08:08:39.802Z,12.50
2018-06-15T08:09:39.814Z,12.40
2018-06-15T08:10:39.823Z,9.70
2018-06-15T08:11:39.836Z,13.50
2018-06-15T08:12:39.846Z,10.20
2018-06-15T08:13:39.857Z,9.80
2018-06-15T08:14:39.867Z,8.40
2018-06-15T08:15:39.877Z,13.30
2018-06-15T08:16:39.889Z,9.80
2018-06-15T08:17:39.897Z,9.70
2018-06-15T08:18:39.907Z,12.40
2018-06-15T08:19:39.918Z,11.30
2018-06-15T08:20:39.929Z,12.80
2018-06-15T08:21:39.939Z,9.90
2018-06-15T08:22:39.948Z,12.30
2018-06-15T08:23:39.959Z,11.00
2018-06-15T08:24:39.968Z,16.10
2018-06-15T08:25:39.981Z,12.50
2018-06-15T08:26:39.988Z,11.60
2018-06-15T08:27:40.048Z,13.90
2018-06-15T08:28:40.008Z,11.40
2018-06-15T08:29:40.018Z,11.30
2018-06-15T08:30:40.031Z,14.30
2018-06-15T08:31:40.038Z,12.70
2018-06-15T08:32:40.054Z,11.40
2018-06-15T08:33:40.059Z,10.40
2018-06-15T08:34:40.072Z,14.20
2018-06-15T08:35:40.083Z,11.10
2018-06-15T08:36:40.095Z,15.80
2018-06-15T08:37:40.113Z,11.00
2018-06-15T08:38:40.119Z,10.40
2018-06-15T08:39:40.132Z,12.60
2018-06-15T08:40:40.146Z,11.80
2018-06-15T08:41:40.158Z,10.80
2018-06-15T08:42:40.173Z,11.30
2018-06-15T08:43:40.186Z,9.20
2018-06-15T08:44:40.203Z,8.70
2018-06-15T08:45:40.214Z,11.60
2018-06-15T08:46:40.229Z,8.30
2018-06-15T08:47:40.242Z,12.60
2018-06-15T08:48:40.256Z,9.20
2018-06-15T08:49:40.272Z,8.70
2018-06-15T08:50:40.284Z,8.40
2018-06-15T08:51:40.299Z,7.80
2018-06-15T08:52:40.322Z,8.10
2018-06-15T08:53:40.330Z,7.70
2018-06-15T08:54:40.344Z,9.90
2018-06-15T08:55:40.358Z,7.60
2018-06-15T08:56:40.373Z,5.90
2018-06-15T08:57:40.388Z,8.10
2018-06-15T08:58:40.402Z,6.50
2018-06-15T08:59:40.417Z,6.90
2018-06-15T09:00:40.432Z,10.10
2018-06-15T09:01:40.449Z,7.40
2018-06-15T09:02:40.462Z,7.30
2018-06-15T09:03:40.475Z,8.20
2018-06-15T09:04:40.496Z,7.20
2018-06-15T09:05:40.506Z,6.70
2018-06-15T09:06:40.520Z,6.60
2018-06-15T09:07:40.536Z,6.90
2018-06-15T09:08:40.551Z,5.70
2018-06-15T09:09:40.565Z,6.50
2018-06-15T09:10:40.581Z,6.00
2018-06-15T09:11:40.595Z,7.60
2018-06-15T09:12:40.609Z,7.00
2018-06-15T09:13:40.624Z,5.80
2018-06-15T09:14:40.641Z,9.20
2018-06-15T09:15:40.659Z,7.50
2018-06-15T09:16:40.666Z,6.90
2018-06-15T09:17:40.680Z,8.10
2018-06-15T09:18:40.695Z,7.10
2018-06-15T09:19:40.710Z,6.70
2018-06-15T09:20:40.722Z,7.90
2018-06-15T09:21:40.735Z,9.80
2018-06-15T09:22:40.749Z,8.30
2018-06-15T09:23:40.763Z,8.30
2018-06-15T09:24:40.776Z,10.20
2018-06-15T09:25:40.788Z,8.30
2018-06-15T09:26:40.801Z,6.80
2018-06-15T09:27:40.815Z,7.60
2018-06-15T09:28:40.827Z,9.00
2018-06-15T09:29:40.839Z,9.50
2018-06-15T09:30:40.852Z,9.30
2018-06-15T09:31:40.865Z,7.80
2018-06-15T09:32:40.928Z,10.20
2018-06-15T09:33:40.888Z,10.00
2018-06-15T09:34:40.906Z,11.20
2018-06-15T09:35:40.913Z,9.30
2018-06-15T09:36:40.925Z,7.90
2018-06-15T09:37:40.936Z,10.10
2018-06-15T09:38:40.950Z,7.20
2018-06-15T09:39:40.961Z,9.00
2018-06-15T09:40:40.971Z,13.50
2018-06-15T09:41:40.982Z,10.80
2018-06-15T09:42:40.994Z,7.10
2018-06-15T09:43:41.007Z,8.30
2018-06-15T09:44:41.017Z,11.00
2018-06-15T09:45:41.028Z,8.10
2018-06-15T09:46:41.041Z,6.20
2018-06-15T09:47:41.052Z,7.10
2018-06-15T09:48:41.068Z,6.50
2018-06-15T09:49:41.075Z,6.10
2018-06-15T09:50:41.087Z,5.60
2018-06-15T09:51:41.103Z,5.90
2018-06-15T09:52:41.113Z,5.10
2018-06-15T09:53:41.124Z,5.00
2018-06-15T09:54:41.136Z,5.10
2018-06-15T09:55:41.150Z,5.40
2018-06-15T09:56:41.163Z,4.60
2018-06-15T09:57:41.176Z,4.80
2018-06-15T09:58:41.189Z,6.30
2018-06-15T09:59:41.202Z,4.50
2018-06-15T10:00:41.216Z,7.00
2018-06-15T10:01:41.227Z,4.50
2018-06-15T10:02:41.240Z,4.20
2018-06-15T10:03:41.254Z,5.70
2018-06-15T10:04:41.268Z,4.70
2018-06-15T10:05:41.282Z,5.60
2018-06-15T10:06:41.293Z,4.20
2018-06-15T10:07:41.310Z,4.20
2018-06-15T10:08:41.320Z,6.30
2018-06-15T10:09:41.332Z,5.20
2018-06-15T10:10:41.346Z,6.70
2018-06-15T10:11:41.359Z,5.50
2018-06-15T10:12:41.371Z,6.00
2018-06-15T10:13:41.386Z,7.70
2018-06-15T10:14:41.396Z,7.00
2018-06-15T10:15:41.410Z,7.90
2018-06-15T10:16:41.452Z,7.60
2018-06-15T10:17:41.434Z,6.50
2018-06-15T10:18:41.448Z,6.00
2018-06-15T10:19:41.462Z,6.60
2018-06-15T10:20:41.472Z,6.90
2018-06-15T10:21:41.483Z,6.20
2018-06-15T10:22:41.494Z,4.20
2018-06-15T10:23:41.508Z,6.10
2018-06-15T10:24:41.522Z,5.20
2018-06-15T10:25:41.532Z,5.90
2018-06-15T10:26:41.548Z,5.90
2018-06-15T10:27:41.556Z,5.60
2018-06-15T10:28:41.569Z,9.10
2018-06-15T10:29:41.580Z,7.00
2018-06-15T10:30:41.593Z,4.50
2018-06-15T10:31:41.606Z,5.20
2018-06-15T10:32:41.621Z,8.50
2018-06-15T10:33:41.631Z,5.20
2018-06-15T10:34:41.646Z,4.90
2018-06-15T10:35:41.658Z,6.00
2018-06-15T10:36:41.672Z,5.30
2018-06-15T10:37:41.684Z,4.50
2018-06-15T10:38:41.698Z,6.10
2018-06-15T10:39:41.713Z,8.90
2018-06-15T10:40:41.726Z,10.10
2018-06-15T10:41:41.739Z,8.50
2018-06-15T10:42:41.753Z,12.00
2018-06-15T10:43:41.767Z,9.10
2018-06-15T10:44:41.782Z,6.00
2018-06-15T10:45:41.805Z,6.10
2018-06-15T10:46:41.808Z,7.50
2018-06-15T10:47:41.823Z,7.30
2018-06-15T10:48:41.838Z,4.40
2018-06-15T10:49:41.851Z,7.00
2018-06-15T10:50:41.866Z,6.20
2018-06-15T10:51:41.881Z,4.60
2018-06-15T10:52:41.896Z,5.50
2018-06-15T10:53:41.908Z,4.80
2018-06-15T10:54:41.923Z,4.70
2018-06-15T10:55:41.937Z,4.80
2018-06-15T10:56:41.952Z,7.40
2018-06-15T10:57:41.966Z,4.00
2018-06-15T10:58:41.981Z,5.10
2018-06-15T10:59:41.995Z,6.70
2018-06-15T11:00:42.009Z,11.80
2018-06-15T11:01:42.023Z,13.00
2018-06-15T11:02:42.038Z,5.30
2018-06-15T11:03:42.053Z,6.90
2018-06-15T11:04:42.066Z,5.40
2018-06-15T11:05:42.080Z,5.70
2018-06-15T11:06:42.094Z,5.40
2018-06-15T11:07:42.113Z,6.70
2018-06-15T11:08:42.122Z,7.60
2018-06-15T11:09:42.136Z,5.30
2018-06-15T11:10:42.151Z,5.20
2018-06-15T11:11:42.164Z,5.80
2018-06-15T11:12:42.179Z,4.70
2018-06-15T11:13:42.191Z,5.10
2018-06-15T11:14:42.205Z,4.60
2018-06-15T11:15:42.219Z,5.30
2018-06-15T11:16:42.233Z,6.00
2018-06-15T11:17:42.249Z,7.40
2018-06-15T11:18:42.260Z,5.90
2018-06-15T11:19:42.274Z,5.40
2018-06-15T11:20:42.287Z,5.20
2018-06-15T11:21:42.299Z,5.30
2018-06-15T11:22:42.312Z,6.40
2018-06-15T11:23:42.326Z,5.90
2018-06-15T11:24:42.344Z,5.10
2018-06-15T11:25:42.349Z,4.70
2018-06-15T11:26:42.364Z,5.00
2018-06-15T11:27:42.377Z,5.00
2018-06-15T11:28:42.389Z,5.10
2018-06-15T11:29:42.402Z,5.20
2018-06-15T11:30:42.415Z,5.30
2018-06-15T11:31:42.426Z,6.20
2018-06-15T11:32:42.445Z,6.40
2018-06-15T11:33:42.450Z,6.20
2018-06-15T11:34:42.462Z,5.70
2018-06-15T11:35:42.475Z,5.10
2018-06-15T11:36:42.487Z,5.90
2018-06-15T11:37:42.499Z,6.70
2018-06-15T11:38:42.510Z,5.80
2018-06-15T11:39:42.522Z,6.00
2018-06-15T11:40:42.534Z,6.80
2018-06-15T11:41:42.545Z,6.00
2018-06-15T11:42:42.557Z,7.20
2018-06-15T11:43:42.569Z,5.50
2018-06-15T11:44:42.579Z,5.40
2018-06-15T11:45:42.590Z,6.50
2018-06-15T11:46:42.602Z,5.30
2018-06-15T11:47:42.613Z,7.30
2018-06-15T11:48:42.627Z,6.10
2018-06-15T11:49:42.636Z,6.50
2018-06-15T11:50:42.647Z,8.90
2018-06-15T11:51:42.657Z,8.10
2018-06-15T11:52:42.668Z,6.70
2018-06-15T11:53:42.678Z,6.60
2018-06-15T11:54:42.690Z,7.30
2018-06-15T11:55:42.702Z,6.00
2018-06-15T11:56:42.712Z,6.70
2018-06-15T11:57:42.723Z,8.80
2018-06-15T11:58:42.735Z,7.60
2018-06-15T11:59:42.744Z,10.10
2018-06-15T12:00:42.755Z,10.90
2018-06-15T12:01:42.775Z,9.80
2018-06-15T12:02:42.776Z,11.20
2018-06-15T12:03:42.790Z,6.40
2018-06-15T12:04:42.797Z,7.80
2018-06-15T12:05:42.807Z,8.80
2018-06-15T12:06:42.818Z,8.70
2018-06-15T12:07:42.828Z,6.70
2018-06-15T12:08:42.838Z,7.70
2018-06-15T12:09:42.849Z,6.90
2018-06-15T12:10:42.860Z,8.90
2018-06-15T12:11:42.870Z,7.80
2018-06-15T12:12:42.881Z,23.40
2018-06-15T12:13:42.889Z,9.10
2018-06-15T12:14:42.901Z,7.00
2018-06-15T12:15:42.910Z,7.10
2018-06-15T12:16:42.924Z,7.90
2018-06-15T12:17:42.929Z,7.70
2018-06-15T12:18:42.941Z,6.90
2018-06-15T12:19:42.954Z,7.20
2018-06-15T12:20:42.962Z,11.20
2018-06-15T12:21:42.971Z,13.40
2018-06-15T12:22:42.982Z,11.70
2018-06-15T12:23:42.992Z,12.10
2018-06-15T12:24:43.002Z,11.20
2018-06-15T12:25:43.012Z,7.00
2018-06-15T12:26:43.022Z,11.10
2018-06-15T12:27:43.032Z,16.70
2018-06-15T12:28:43.046Z,23.50
2018-06-15T12:29:43.053Z,18.00
2018-06-15T12:30:43.063Z,10.50
2018-06-15T12:31:43.074Z,10.90
2018-06-15T12:32:43.086Z,7.90
2018-06-15T12:33:43.092Z,8.10
2018-06-15T12:34:43.102Z,9.70
2018-06-15T12:35:43.113Z,13.40
2018-06-15T12:36:43.122Z,10.80
2018-06-15T12:37:43.132Z,12.90
2018-06-15T12:38:43.141Z,9.20
2018-06-15T12:39:43.150Z,11.00
2018-06-15T12:40:43.163Z,11.10
2018-06-15T12:41:43.171Z,8.30
2018-06-15T12:42:43.181Z,9.70
2018-06-15T12:43:43.191Z,9.00
2018-06-15T12:44:43.200Z,10.60
2018-06-15T12:45:43.233Z,8.60
2018-06-15T12:46:43.220Z,12.80
2018-06-15T12:47:43.228Z,10.50
2018-06-15T12:48:43.240Z,8.60
2018-06-15T12:49:43.249Z,9.70
2018-06-15T12:50:43.259Z,11.10
2018-06-15T12:51:43.272Z,13.80
2018-06-15T12:52:43.279Z,13.70
2018-06-15T12:53:43.291Z,8.30
2018-06-15T12:54:43.297Z,6.90
2018-06-15T12:55:43.308Z,13.30
2018-06-15T12:56:43.318Z,13.50
2018-06-15T12:57:43.327Z,7.60
2018-06-15T12:58:43.336Z,9.40
2018-06-15T12:59:43.347Z,8.60